sensor_id;sensor_type;location;lat;lon;timestamp;temperature;humidity
3562;DHT22;1795;52.074;4.754;2022-12-29T00:01:00;10.10;99.90
3562;DHT22;1795;52.074;4.754;2022-12-29T00:03:29;10.00;99.90
3562;DHT22;1795;52.074;4.754;2022-12-29T00:05:58;10.10;99.90
3562;DHT22;1795;52.074;4.754;2022-12-29T00:08:25;10.00;99.90
3562;DHT22;1795;52.074;4.754;2022-12-29T00:11:07;10.00;99.90
3562;DHT22;1795;52.074;4.754;2022-12-29T00:13:35;10.10;99.90
3562;DHT22;1795;52.074;4.754;2022-12-29T00:16:21;10.10;99.90
3562;DHT22;1795;52.074;4.754;2022-12-29T00:18:50;10.00;99.90
3562;DHT22;1795;52.074;4.754;2022-12-29T00:21:20;10.00;99.90
3562;DHT22;1795;52.074;4.754;2022-12-29T00:24:06;10.00;99.90
3562;DHT22;1795;52.074;4.754;2022-12-29T00:26:57;10.00;99.90
3562;DHT22;1795;52.074;4.754;2022-12-29T00:29:43;10.10;99.90
3562;DHT22;1795;52.074;4.754;2022-12-29T00:32:34;10.10;99.90
3562;DHT22;1795;52.074;4.754;2022-12-29T00:35:22;10.10;99.90
3562;DHT22;1795;52.074;4.754;2022-12-29T00:37:52;10.10;99.90
3562;DHT22;1795;52.074;4.754;2022-12-29T00:40:43;10.10;99.90
3562;DHT22;1795;52.074;4.754;2022-12-29T00:43:29;10.10;99.90
3562;DHT22;1795;52.074;4.754;2022-12-29T00:46:14;10.10;99.90
3562;DHT22;1795;52.074;4.754;2022-12-29T00:48:46;10.10;99.90
3562;DHT22;1795;52.074;4.754;2022-12-29T00:51:33;10.10;99.90
3562;DHT22;1795;52.074;4.754;2022-12-29T00:54:00;10.10;99.90
3562;DHT22;1795;52.074;4.754;2022-12-29T00:56:29;10.10;99.90
3562;DHT22;1795;52.074;4.754;2022-12-29T00:59:00;10.10;99.90
3562;DHT22;1795;52.074;4.754;2022-12-29T01:01:28;10.10;99.90
3562;DHT22;1795;52.074;4.754;2022-12-29T01:03:56;10.10;99.90
3562;DHT22;1795;52.074;4.754;2022-12-29T01:06:30;10.10;99.90
3562;DHT22;1795;52.074;4.754;2022-12-29T01:09:00;10.10;99.90
3562;DHT22;1795;52.074;4.754;2022-12-29T01:11:46;10.10;99.90
3562;DHT22;1795;52.074;4.754;2022-12-29T01:14:14;10.10;99.90
3562;DHT22;1795;52.074;4.754;2022-12-29T01:16:44;10.10;99.90
3562;DHT22;1795;52.074;4.754;2022-12-29T01:19:13;10.10;99.90
3562;DHT22;1795;52.074;4.754;2022-12-29T01:21:41;10.10;99.90
3562;DHT22;1795;52.074;4.754;2022-12-29T01:24:11;10.10;99.90
3562;DHT22;1795;52.074;4.754;2022-12-29T01:26:39;10.20;99.90
3562;DHT22;1795;52.074;4.754;2022-12-29T01:29:07;10.20;99.90
3562;DHT22;1795;52.074;4.754;2022-12-29T01:31:35;10.20;99.90
3562;DHT22;1795;52.074;4.754;2022-12-29T01:34:04;10.20;99.90
3562;DHT22;1795;52.074;4.754;2022-12-29T01:36:33;10.20;99.90
3562;DHT22;1795;52.074;4.754;2022-12-29T01:39:02;10.20;99.90
3562;DHT22;1795;52.074;4.754;2022-12-29T01:41:32;10.20;99.90
3562;DHT22;1795;52.074;4.754;2022-12-29T01:44:00;10.20;99.90
3562;DHT22;1795;52.074;4.754;2022-12-29T01:46:32;10.20;99.90
3562;DHT22;1795;52.074;4.754;2022-12-29T01:49:05;10.20;99.90
3562;DHT22;1795;52.074;4.754;2022-12-29T01:51:40;10.20;99.90
3562;DHT22;1795;52.074;4.754;2022-12-29T01:54:10;10.20;99.90
3562;DHT22;1795;52.074;4.754;2022-12-29T01:56:40;10.20;99.90
3562;DHT22;1795;52.074;4.754;2022-12-29T01:59:14;10.20;99.90
3562;DHT22;1795;52.074;4.754;2022-12-29T02:01:44;10.20;99.90
3562;DHT22;1795;52.074;4.754;2022-12-29T02:04:12;10.10;99.90
3562;DHT22;1795;52.074;4.754;2022-12-29T02:06:45;10.10;99.90
3562;DHT22;1795;52.074;4.754;2022-12-29T02:09:13;10.10;99.90
3562;DHT22;1795;52.074;4.754;2022-12-29T02:11:45;10.10;99.90
3562;DHT22;1795;52.074;4.754;2022-12-29T02:14:14;10.10;99.90
3562;DHT22;1795;52.074;4.754;2022-12-29T02:17:01;10.10;99.90
3562;DHT22;1795;52.074;4.754;2022-12-29T02:22:47;10.10;99.90
3562;DHT22;1795;52.074;4.754;2022-12-29T02:25:35;10.10;99.90
3562;DHT22;1795;52.074;4.754;2022-12-29T02:28:45;10.10;99.90
3562;DHT22;1795;52.074;4.754;2022-12-29T02:31:27;10.10;99.90
3562;DHT22;1795;52.074;4.754;2022-12-29T02:34:04;10.10;99.90
3562;DHT22;1795;52.074;4.754;2022-12-29T02:36:42;10.10;99.90
3562;DHT22;1795;52.074;4.754;2022-12-29T02:39:18;10.10;99.90
3562;DHT22;1795;52.074;4.754;2022-12-29T02:41:56;10.10;99.90
3562;DHT22;1795;52.074;4.754;2022-12-29T02:44:34;10.10;99.90
3562;DHT22;1795;52.074;4.754;2022-12-29T02:47:10;10.10;99.90
3562;DHT22;1795;52.074;4.754;2022-12-29T02:49:45;10.10;99.90
3562;DHT22;1795;52.074;4.754;2022-12-29T02:52:19;10.00;99.90
3562;DHT22;1795;52.074;4.754;2022-12-29T02:54:48;10.10;99.90
3562;DHT22;1795;52.074;4.754;2022-12-29T02:57:29;10.10;99.90
3562;DHT22;1795;52.074;4.754;2022-12-29T03:00:00;10.10;99.90
3562;DHT22;1795;52.074;4.754;2022-12-29T03:02:45;10.10;99.90
3562;DHT22;1795;52.074;4.754;2022-12-29T03:05:27;10.10;99.90
3562;DHT22;1795;52.074;4.754;2022-12-29T03:08:09;10.00;99.90
3562;DHT22;1795;52.074;4.754;2022-12-29T03:10:48;10.00;99.90
3562;DHT22;1795;52.074;4.754;2022-12-29T03:13:25;10.10;99.90
3562;DHT22;1795;52.074;4.754;2022-12-29T03:16:17;10.00;99.90
3562;DHT22;1795;52.074;4.754;2022-12-29T03:18:56;10.00;99.90
3562;DHT22;1795;52.074;4.754;2022-12-29T03:21:30;10.00;99.90
3562;DHT22;1795;52.074;4.754;2022-12-29T03:24:13;10.00;99.90
3562;DHT22;1795;52.074;4.754;2022-12-29T03:26:45;10.00;99.90
3562;DHT22;1795;52.074;4.754;2022-12-29T03:29:17;9.90;99.90
3562;DHT22;1795;52.074;4.754;2022-12-29T03:31:48;10.00;99.90
3562;DHT22;1795;52.074;4.754;2022-12-29T03:34:20;10.00;99.90
3562;DHT22;1795;52.074;4.754;2022-12-29T03:36:53;10.00;99.90
3562;DHT22;1795;52.074;4.754;2022-12-29T03:39:24;9.90;99.90
3562;DHT22;1795;52.074;4.754;2022-12-29T03:41:59;9.90;99.90
3562;DHT22;1795;52.074;4.754;2022-12-29T03:44:33;10.00;99.90
3562;DHT22;1795;52.074;4.754;2022-12-29T03:47:01;9.90;99.90
3562;DHT22;1795;52.074;4.754;2022-12-29T03:49:31;9.90;99.90
3562;DHT22;1795;52.074;4.754;2022-12-29T03:51:59;9.90;99.90
3562;DHT22;1795;52.074;4.754;2022-12-29T03:54:27;9.90;99.90
3562;DHT22;1795;52.074;4.754;2022-12-29T03:56:56;9.90;99.90
3562;DHT22;1795;52.074;4.754;2022-12-29T03:59:24;9.90;99.90
3562;DHT22;1795;52.074;4.754;2022-12-29T04:01:52;9.90;99.90
3562;DHT22;1795;52.074;4.754;2022-12-29T04:04:20;9.90;99.90
3562;DHT22;1795;52.074;4.754;2022-12-29T04:06:49;9.90;99.90
3562;DHT22;1795;52.074;4.754;2022-12-29T04:09:17;9.90;99.90
3562;DHT22;1795;52.074;4.754;2022-12-29T04:11:45;9.90;99.90
3562;DHT22;1795;52.074;4.754;2022-12-29T04:14:13;9.90;99.90
3562;DHT22;1795;52.074;4.754;2022-12-29T04:16:44;9.90;99.90
3562;DHT22;1795;52.074;4.754;2022-12-29T04:19:12;9.90;99.90
3562;DHT22;1795;52.074;4.754;2022-12-29T04:21:40;9.90;99.90
3562;DHT22;1795;52.074;4.754;2022-12-29T04:24:09;9.90;99.90
3562;DHT22;1795;52.074;4.754;2022-12-29T04:26:37;9.90;99.90
3562;DHT22;1795;52.074;4.754;2022-12-29T04:29:05;9.80;99.90
3562;DHT22;1795;52.074;4.754;2022-12-29T04:31:33;9.80;99.90
3562;DHT22;1795;52.074;4.754;2022-12-29T04:34:01;9.80;99.90
3562;DHT22;1795;52.074;4.754;2022-12-29T04:36:29;9.80;99.90
3562;DHT22;1795;52.074;4.754;2022-12-29T04:38:57;9.80;99.90
3562;DHT22;1795;52.074;4.754;2022-12-29T04:41:27;9.80;99.90
3562;DHT22;1795;52.074;4.754;2022-12-29T04:43:55;9.80;99.90
3562;DHT22;1795;52.074;4.754;2022-12-29T04:46:23;9.80;99.90
3562;DHT22;1795;52.074;4.754;2022-12-29T04:48:51;9.80;99.90
3562;DHT22;1795;52.074;4.754;2022-12-29T04:51:19;9.80;99.90
3562;DHT22;1795;52.074;4.754;2022-12-29T04:53:47;9.70;99.90
3562;DHT22;1795;52.074;4.754;2022-12-29T04:56:15;9.70;99.90
3562;DHT22;1795;52.074;4.754;2022-12-29T04:58:45;9.70;99.90
3562;DHT22;1795;52.074;4.754;2022-12-29T05:01:13;9.70;99.90
3562;DHT22;1795;52.074;4.754;2022-12-29T05:03:41;9.70;99.90
3562;DHT22;1795;52.074;4.754;2022-12-29T05:06:09;9.70;99.90
3562;DHT22;1795;52.074;4.754;2022-12-29T05:08:37;9.70;99.90
3562;DHT22;1795;52.074;4.754;2022-12-29T05:11:05;9.70;99.90
3562;DHT22;1795;52.074;4.754;2022-12-29T05:13:33;9.70;99.90
3562;DHT22;1795;52.074;4.754;2022-12-29T05:16:20;9.70;99.90
3562;DHT22;1795;52.074;4.754;2022-12-29T05:18:48;9.70;99.90
3562;DHT22;1795;52.074;4.754;2022-12-29T05:21:16;9.70;99.90
3562;DHT22;1795;52.074;4.754;2022-12-29T05:23:44;9.70;99.90
3562;DHT22;1795;52.074;4.754;2022-12-29T05:26:12;9.70;99.90
3562;DHT22;1795;52.074;4.754;2022-12-29T05:28:40;9.70;99.90
3562;DHT22;1795;52.074;4.754;2022-12-29T05:31:08;9.60;99.90
3562;DHT22;1795;52.074;4.754;2022-12-29T05:33:37;9.60;99.90
3562;DHT22;1795;52.074;4.754;2022-12-29T05:36:06;9.60;99.90
3562;DHT22;1795;52.074;4.754;2022-12-29T05:38:35;9.60;99.90
3562;DHT22;1795;52.074;4.754;2022-12-29T05:41:03;9.60;99.90
3562;DHT22;1795;52.074;4.754;2022-12-29T05:43:31;9.60;99.90
3562;DHT22;1795;52.074;4.754;2022-12-29T05:45:59;9.60;99.90
3562;DHT22;1795;52.074;4.754;2022-12-29T05:48:27;9.50;99.90
3562;DHT22;1795;52.074;4.754;2022-12-29T05:51:05;9.50;99.90
3562;DHT22;1795;52.074;4.754;2022-12-29T05:53:33;9.50;99.90
3562;DHT22;1795;52.074;4.754;2022-12-29T05:56:01;9.50;99.90
3562;DHT22;1795;52.074;4.754;2022-12-29T05:58:29;9.50;99.90
3562;DHT22;1795;52.074;4.754;2022-12-29T06:00:57;9.50;99.90
3562;DHT22;1795;52.074;4.754;2022-12-29T06:03:25;9.50;99.90
3562;DHT22;1795;52.074;4.754;2022-12-29T06:05:53;9.40;99.90
3562;DHT22;1795;52.074;4.754;2022-12-29T06:08:22;9.40;99.90
3562;DHT22;1795;52.074;4.754;2022-12-29T06:10:50;9.40;99.90
3562;DHT22;1795;52.074;4.754;2022-12-29T06:13:21;9.40;99.90
3562;DHT22;1795;52.074;4.754;2022-12-29T06:15:49;9.40;99.90
3562;DHT22;1795;52.074;4.754;2022-12-29T06:18:18;9.40;99.90
3562;DHT22;1795;52.074;4.754;2022-12-29T06:20:46;9.40;99.90
3562;DHT22;1795;52.074;4.754;2022-12-29T06:23:15;9.40;99.90
3562;DHT22;1795;52.074;4.754;2022-12-29T06:25:46;9.40;99.90
3562;DHT22;1795;52.074;4.754;2022-12-29T06:28:15;9.30;99.90
3562;DHT22;1795;52.074;4.754;2022-12-29T06:30:44;9.30;99.90
3562;DHT22;1795;52.074;4.754;2022-12-29T06:33:12;9.30;99.90
3562;DHT22;1795;52.074;4.754;2022-12-29T06:35:41;9.30;99.90
3562;DHT22;1795;52.074;4.754;2022-12-29T06:38:10;9.20;99.90
3562;DHT22;1795;52.074;4.754;2022-12-29T06:40:38;9.20;99.90
3562;DHT22;1795;52.074;4.754;2022-12-29T06:43:09;9.30;99.90
3562;DHT22;1795;52.074;4.754;2022-12-29T06:45:38;9.20;99.90
3562;DHT22;1795;52.074;4.754;2022-12-29T06:48:06;9.20;99.90
3562;DHT22;1795;52.074;4.754;2022-12-29T06:50:35;9.20;99.90
3562;DHT22;1795;52.074;4.754;2022-12-29T06:53:03;9.20;99.90
3562;DHT22;1795;52.074;4.754;2022-12-29T06:55:31;9.10;99.90
3562;DHT22;1795;52.074;4.754;2022-12-29T06:57:59;9.10;99.90
3562;DHT22;1795;52.074;4.754;2022-12-29T07:00:29;9.10;99.90
3562;DHT22;1795;52.074;4.754;2022-12-29T07:02:57;9.10;99.90
3562;DHT22;1795;52.074;4.754;2022-12-29T07:05:26;9.10;99.90
3562;DHT22;1795;52.074;4.754;2022-12-29T07:07:54;9.10;99.90
3562;DHT22;1795;52.074;4.754;2022-12-29T07:10:22;9.10;99.90
3562;DHT22;1795;52.074;4.754;2022-12-29T07:12:50;9.00;99.90
3562;DHT22;1795;52.074;4.754;2022-12-29T07:15:18;9.00;99.90
3562;DHT22;1795;52.074;4.754;2022-12-29T07:17:48;9.00;99.90
3562;DHT22;1795;52.074;4.754;2022-12-29T07:20:17;8.90;99.90
3562;DHT22;1795;52.074;4.754;2022-12-29T07:22:52;9.00;99.90
3562;DHT22;1795;52.074;4.754;2022-12-29T07:25:20;9.00;99.90
3562;DHT22;1795;52.074;4.754;2022-12-29T07:27:48;8.90;99.90
3562;DHT22;1795;52.074;4.754;2022-12-29T07:30:17;8.90;99.90
3562;DHT22;1795;52.074;4.754;2022-12-29T07:32:45;8.90;99.90
3562;DHT22;1795;52.074;4.754;2022-12-29T07:35:15;8.90;99.90
3562;DHT22;1795;52.074;4.754;2022-12-29T07:37:43;8.90;99.90
3562;DHT22;1795;52.074;4.754;2022-12-29T07:40:14;8.90;99.90
3562;DHT22;1795;52.074;4.754;2022-12-29T07:42:42;8.90;99.90
3562;DHT22;1795;52.074;4.754;2022-12-29T07:45:10;8.90;99.90
3562;DHT22;1795;52.074;4.754;2022-12-29T07:47:38;8.90;99.90
3562;DHT22;1795;52.074;4.754;2022-12-29T07:50:06;8.90;99.90
3562;DHT22;1795;52.074;4.754;2022-12-29T07:52:36;8.90;99.90
3562;DHT22;1795;52.074;4.754;2022-12-29T07:55:04;8.90;99.90
3562;DHT22;1795;52.074;4.754;2022-12-29T07:57:32;8.90;99.90
3562;DHT22;1795;52.074;4.754;2022-12-29T08:00:01;8.90;99.90
3562;DHT22;1795;52.074;4.754;2022-12-29T08:02:30;8.90;99.90
3562;DHT22;1795;52.074;4.754;2022-12-29T08:04:58;8.90;99.90
3562;DHT22;1795;52.074;4.754;2022-12-29T08:07:26;8.90;99.90
3562;DHT22;1795;52.074;4.754;2022-12-29T08:09:56;8.90;99.90
3562;DHT22;1795;52.074;4.754;2022-12-29T08:12:24;8.90;99.90
3562;DHT22;1795;52.074;4.754;2022-12-29T08:14:52;8.90;99.90
3562;DHT22;1795;52.074;4.754;2022-12-29T08:17:20;8.90;99.90
3562;DHT22;1795;52.074;4.754;2022-12-29T08:19:48;8.90;99.90
3562;DHT22;1795;52.074;4.754;2022-12-29T08:22:16;8.90;99.90
3562;DHT22;1795;52.074;4.754;2022-12-29T08:24:44;8.90;99.90
3562;DHT22;1795;52.074;4.754;2022-12-29T08:27:13;9.00;99.90
3562;DHT22;1795;52.074;4.754;2022-12-29T08:29:46;8.90;99.90
3562;DHT22;1795;52.074;4.754;2022-12-29T08:32:15;8.90;99.90
3562;DHT22;1795;52.074;4.754;2022-12-29T08:34:43;9.00;99.90
3562;DHT22;1795;52.074;4.754;2022-12-29T08:37:11;9.00;99.90
3562;DHT22;1795;52.074;4.754;2022-12-29T08:39:39;8.90;99.90
3562;DHT22;1795;52.074;4.754;2022-12-29T08:42:07;8.90;99.90
3562;DHT22;1795;52.074;4.754;2022-12-29T08:44:37;8.90;99.90
3562;DHT22;1795;52.074;4.754;2022-12-29T08:47:05;9.00;99.90
3562;DHT22;1795;52.074;4.754;2022-12-29T08:49:33;9.00;99.90
3562;DHT22;1795;52.074;4.754;2022-12-29T08:52:01;9.00;99.90
3562;DHT22;1795;52.074;4.754;2022-12-29T08:54:29;9.00;99.90
3562;DHT22;1795;52.074;4.754;2022-12-29T08:56:57;9.00;99.90
3562;DHT22;1795;52.074;4.754;2022-12-29T08:59:25;9.00;99.90
3562;DHT22;1795;52.074;4.754;2022-12-29T09:01:55;9.00;99.90
3562;DHT22;1795;52.074;4.754;2022-12-29T09:04:23;9.00;99.90
3562;DHT22;1795;52.074;4.754;2022-12-29T09:06:51;9.00;99.90
3562;DHT22;1795;52.074;4.754;2022-12-29T09:09:19;9.00;99.90
3562;DHT22;1795;52.074;4.754;2022-12-29T09:11:48;9.00;99.90
3562;DHT22;1795;52.074;4.754;2022-12-29T09:14:15;9.00;99.90
3562;DHT22;1795;52.074;4.754;2022-12-29T09:16:43;9.00;99.90
3562;DHT22;1795;52.074;4.754;2022-12-29T09:19:30;9.00;99.90
3562;DHT22;1795;52.074;4.754;2022-12-29T09:21:59;9.00;99.90
3562;DHT22;1795;52.074;4.754;2022-12-29T09:24:27;9.00;99.90
3562;DHT22;1795;52.074;4.754;2022-12-29T09:26:55;9.00;99.90
3562;DHT22;1795;52.074;4.754;2022-12-29T09:29:23;8.90;99.90
3562;DHT22;1795;52.074;4.754;2022-12-29T09:31:51;9.00;99.90
3562;DHT22;1795;52.074;4.754;2022-12-29T09:34:19;8.90;99.90
3562;DHT22;1795;52.074;4.754;2022-12-29T09:36:48;8.90;99.90
3562;DHT22;1795;52.074;4.754;2022-12-29T09:39:16;9.00;99.90
3562;DHT22;1795;52.074;4.754;2022-12-29T09:41:49;9.00;99.90
3562;DHT22;1795;52.074;4.754;2022-12-29T09:44:24;9.00;99.90
3562;DHT22;1795;52.074;4.754;2022-12-29T09:46:55;9.00;99.90
3562;DHT22;1795;52.074;4.754;2022-12-29T09:49:28;9.00;99.90
3562;DHT22;1795;52.074;4.754;2022-12-29T09:52:05;9.00;99.90
3562;DHT22;1795;52.074;4.754;2022-12-29T09:54:39;9.00;99.90
3562;DHT22;1795;52.074;4.754;2022-12-29T09:57:16;9.00;99.90
3562;DHT22;1795;52.074;4.754;2022-12-29T09:59:46;9.00;99.90
3562;DHT22;1795;52.074;4.754;2022-12-29T10:02:32;9.00;99.90
3562;DHT22;1795;52.074;4.754;2022-12-29T10:05:00;9.00;99.90
3562;DHT22;1795;52.074;4.754;2022-12-29T10:07:36;9.00;99.90
3562;DHT22;1795;52.074;4.754;2022-12-29T10:10:20;9.00;99.90
3562;DHT22;1795;52.074;4.754;2022-12-29T10:12:58;9.00;99.90
3562;DHT22;1795;52.074;4.754;2022-12-29T10:15:40;9.00;99.90
3562;DHT22;1795;52.074;4.754;2022-12-29T10:18:23;9.00;99.90
3562;DHT22;1795;52.074;4.754;2022-12-29T10:21:01;9.00;99.90
3562;DHT22;1795;52.074;4.754;2022-12-29T10:23:38;9.10;99.90
3562;DHT22;1795;52.074;4.754;2022-12-29T10:26:14;9.00;99.90
3562;DHT22;1795;52.074;4.754;2022-12-29T10:28:44;9.10;99.90
3562;DHT22;1795;52.074;4.754;2022-12-29T10:31:16;9.10;99.90
3562;DHT22;1795;52.074;4.754;2022-12-29T10:33:50;9.10;99.90
3562;DHT22;1795;52.074;4.754;2022-12-29T10:36:23;9.10;99.90
3562;DHT22;1795;52.074;4.754;2022-12-29T10:39:02;9.10;99.90
3562;DHT22;1795;52.074;4.754;2022-12-29T10:41:38;9.10;99.90
3562;DHT22;1795;52.074;4.754;2022-12-29T10:44:09;9.10;99.90
3562;DHT22;1795;52.074;4.754;2022-12-29T10:46:39;9.10;99.90
3562;DHT22;1795;52.074;4.754;2022-12-29T10:49:12;9.10;99.90
3562;DHT22;1795;52.074;4.754;2022-12-29T10:51:48;9.10;99.90
3562;DHT22;1795;52.074;4.754;2022-12-29T10:54:22;9.20;99.90
3562;DHT22;1795;52.074;4.754;2022-12-29T10:56:56;9.20;99.90
3562;DHT22;1795;52.074;4.754;2022-12-29T10:59:29;9.20;99.90
3562;DHT22;1795;52.074;4.754;2022-12-29T11:04:49;9.20;99.90
3562;DHT22;1795;52.074;4.754;2022-12-29T11:07:21;9.20;99.90
3562;DHT22;1795;52.074;4.754;2022-12-29T11:09:54;9.20;99.90
3562;DHT22;1795;52.074;4.754;2022-12-29T11:12:24;9.30;99.90
3562;DHT22;1795;52.074;4.754;2022-12-29T11:15:12;9.30;99.90
3562;DHT22;1795;52.074;4.754;2022-12-29T11:17:45;9.30;99.90
3562;DHT22;1795;52.074;4.754;2022-12-29T11:20:33;9.30;99.90
3562;DHT22;1795;52.074;4.754;2022-12-29T11:23:03;9.40;99.90
3562;DHT22;1795;52.074;4.754;2022-12-29T11:25:33;9.40;99.90
3562;DHT22;1795;52.074;4.754;2022-12-29T11:28:03;9.40;99.90
3562;DHT22;1795;52.074;4.754;2022-12-29T11:30:40;9.50;99.90
3562;DHT22;1795;52.074;4.754;2022-12-29T11:33:09;9.50;99.90
3562;DHT22;1795;52.074;4.754;2022-12-29T11:35:40;9.50;99.90
3562;DHT22;1795;52.074;4.754;2022-12-29T11:38:18;9.50;99.90
3562;DHT22;1795;52.074;4.754;2022-12-29T11:40:49;9.50;99.90
3562;DHT22;1795;52.074;4.754;2022-12-29T11:43:21;9.50;99.90
3562;DHT22;1795;52.074;4.754;2022-12-29T11:45:52;9.50;99.90
3562;DHT22;1795;52.074;4.754;2022-12-29T11:48:24;9.50;99.90
3562;DHT22;1795;52.074;4.754;2022-12-29T11:50:56;9.60;99.90
3562;DHT22;1795;52.074;4.754;2022-12-29T11:53:28;9.50;99.90
3562;DHT22;1795;52.074;4.754;2022-12-29T11:56:04;9.60;99.90
3562;DHT22;1795;52.074;4.754;2022-12-29T11:58:35;9.60;99.90
3562;DHT22;1795;52.074;4.754;2022-12-29T12:01:06;9.60;99.90
3562;DHT22;1795;52.074;4.754;2022-12-29T12:03:37;9.60;99.90
3562;DHT22;1795;52.074;4.754;2022-12-29T12:06:12;9.50;99.90
3562;DHT22;1795;52.074;4.754;2022-12-29T12:08:45;9.50;99.90
3562;DHT22;1795;52.074;4.754;2022-12-29T12:11:18;9.50;99.90
3562;DHT22;1795;52.074;4.754;2022-12-29T12:13:51;9.50;99.90
3562;DHT22;1795;52.074;4.754;2022-12-29T12:16:22;9.50;99.90
3562;DHT22;1795;52.074;4.754;2022-12-29T12:18:57;9.50;99.90
3562;DHT22;1795;52.074;4.754;2022-12-29T12:21:34;9.50;99.90
3562;DHT22;1795;52.074;4.754;2022-12-29T12:24:23;9.50;99.90
3562;DHT22;1795;52.074;4.754;2022-12-29T12:27:00;9.50;99.90
3562;DHT22;1795;52.074;4.754;2022-12-29T12:29:35;9.50;99.90
3562;DHT22;1795;52.074;4.754;2022-12-29T12:32:12;9.60;99.90
3562;DHT22;1795;52.074;4.754;2022-12-29T12:34:43;9.60;99.90
3562;DHT22;1795;52.074;4.754;2022-12-29T12:40:53;9.60;99.90
3562;DHT22;1795;52.074;4.754;2022-12-29T12:43:43;9.60;99.90
3562;DHT22;1795;52.074;4.754;2022-12-29T12:46:25;9.60;99.90
3562;DHT22;1795;52.074;4.754;2022-12-29T12:49:06;9.60;99.90
3562;DHT22;1795;52.074;4.754;2022-12-29T12:51:47;9.60;99.90
3562;DHT22;1795;52.074;4.754;2022-12-29T12:54:29;9.60;99.90
3562;DHT22;1795;52.074;4.754;2022-12-29T12:57:08;9.60;99.90
3562;DHT22;1795;52.074;4.754;2022-12-29T12:59:47;9.60;99.90
3562;DHT22;1795;52.074;4.754;2022-12-29T13:02:28;9.60;99.90
3562;DHT22;1795;52.074;4.754;2022-12-29T13:08:13;9.60;99.90
3562;DHT22;1795;52.074;4.754;2022-12-29T13:10:50;9.70;99.90
3562;DHT22;1795;52.074;4.754;2022-12-29T13:13:36;9.70;99.90
3562;DHT22;1795;52.074;4.754;2022-12-29T13:16:13;9.60;99.90
3562;DHT22;1795;52.074;4.754;2022-12-29T13:18:49;9.70;99.90
3562;DHT22;1795;52.074;4.754;2022-12-29T13:21:27;9.70;99.90
3562;DHT22;1795;52.074;4.754;2022-12-29T13:24:02;9.70;99.90
3562;DHT22;1795;52.074;4.754;2022-12-29T13:26:35;9.70;99.90
3562;DHT22;1795;52.074;4.754;2022-12-29T13:29:15;9.70;99.90
3562;DHT22;1795;52.074;4.754;2022-12-29T13:31:52;9.70;99.90
3562;DHT22;1795;52.074;4.754;2022-12-29T13:34:29;9.70;99.90
3562;DHT22;1795;52.074;4.754;2022-12-29T13:37:00;9.70;99.90
3562;DHT22;1795;52.074;4.754;2022-12-29T13:39:33;9.70;99.90
3562;DHT22;1795;52.074;4.754;2022-12-29T13:42:03;9.80;99.90
3562;DHT22;1795;52.074;4.754;2022-12-29T13:44:34;9.80;99.90
3562;DHT22;1795;52.074;4.754;2022-12-29T13:47:11;9.80;99.90
3562;DHT22;1795;52.074;4.754;2022-12-29T13:49:43;9.80;99.90
3562;DHT22;1795;52.074;4.754;2022-12-29T13:52:15;9.80;99.90
3562;DHT22;1795;52.074;4.754;2022-12-29T13:54:52;9.80;99.90
3562;DHT22;1795;52.074;4.754;2022-12-29T13:57:32;9.80;99.90
3562;DHT22;1795;52.074;4.754;2022-12-29T14:00:07;9.80;99.90
3562;DHT22;1795;52.074;4.754;2022-12-29T14:02:46;9.80;99.90
3562;DHT22;1795;52.074;4.754;2022-12-29T14:05:30;9.80;99.90
3562;DHT22;1795;52.074;4.754;2022-12-29T14:08:00;9.80;99.90
3562;DHT22;1795;52.074;4.754;2022-12-29T14:10:32;9.70;99.90
3562;DHT22;1795;52.074;4.754;2022-12-29T14:13:05;9.70;99.90
3562;DHT22;1795;52.074;4.754;2022-12-29T14:15:38;9.70;99.90
3562;DHT22;1795;52.074;4.754;2022-12-29T14:18:15;9.70;99.90
3562;DHT22;1795;52.074;4.754;2022-12-29T14:20:51;9.70;99.90
3562;DHT22;1795;52.074;4.754;2022-12-29T14:23:45;9.60;99.90
3562;DHT22;1795;52.074;4.754;2022-12-29T14:26:17;9.60;99.90
3562;DHT22;1795;52.074;4.754;2022-12-29T14:28:47;9.60;99.90
3562;DHT22;1795;52.074;4.754;2022-12-29T14:31:33;9.60;99.90
3562;DHT22;1795;52.074;4.754;2022-12-29T14:34:29;9.60;99.90
3562;DHT22;1795;52.074;4.754;2022-12-29T14:36:58;9.50;99.90
3562;DHT22;1795;52.074;4.754;2022-12-29T14:39:32;9.50;99.90
3562;DHT22;1795;52.074;4.754;2022-12-29T14:42:00;9.50;99.90
3562;DHT22;1795;52.074;4.754;2022-12-29T14:44:31;9.50;99.90
3562;DHT22;1795;52.074;4.754;2022-12-29T14:47:01;9.50;99.90
3562;DHT22;1795;52.074;4.754;2022-12-29T14:49:41;9.50;99.90
3562;DHT22;1795;52.074;4.754;2022-12-29T14:52:17;9.50;99.90
3562;DHT22;1795;52.074;4.754;2022-12-29T14:54:51;9.40;99.90
3562;DHT22;1795;52.074;4.754;2022-12-29T14:57:32;9.40;99.90
3562;DHT22;1795;52.074;4.754;2022-12-29T15:00:14;9.40;99.90
3562;DHT22;1795;52.074;4.754;2022-12-29T15:02:46;9.40;99.90
3562;DHT22;1795;52.074;4.754;2022-12-29T15:05:35;9.40;99.90
3562;DHT22;1795;52.074;4.754;2022-12-29T15:08:05;9.40;99.90
3562;DHT22;1795;52.074;4.754;2022-12-29T15:10:41;9.40;99.90
3562;DHT22;1795;52.074;4.754;2022-12-29T15:13:16;9.40;99.90
3562;DHT22;1795;52.074;4.754;2022-12-29T15:15:44;9.30;99.90
3562;DHT22;1795;52.074;4.754;2022-12-29T15:18:15;9.30;99.90
3562;DHT22;1795;52.074;4.754;2022-12-29T15:20:53;9.30;99.90
3562;DHT22;1795;52.074;4.754;2022-12-29T15:23:22;9.30;99.90
3562;DHT22;1795;52.074;4.754;2022-12-29T15:25:53;9.30;99.90
3562;DHT22;1795;52.074;4.754;2022-12-29T15:28:22;9.30;99.90
3562;DHT22;1795;52.074;4.754;2022-12-29T15:30:52;9.30;99.90
3562;DHT22;1795;52.074;4.754;2022-12-29T15:33:22;9.30;99.90
3562;DHT22;1795;52.074;4.754;2022-12-29T15:35:53;9.30;99.90
3562;DHT22;1795;52.074;4.754;2022-12-29T15:38:23;9.30;99.90
3562;DHT22;1795;52.074;4.754;2022-12-29T15:41:02;9.30;99.90
3562;DHT22;1795;52.074;4.754;2022-12-29T15:43:42;9.30;99.90
3562;DHT22;1795;52.074;4.754;2022-12-29T15:46:13;9.30;99.90
3562;DHT22;1795;52.074;4.754;2022-12-29T15:48:42;9.20;99.90
3562;DHT22;1795;52.074;4.754;2022-12-29T15:51:18;9.20;99.90
3562;DHT22;1795;52.074;4.754;2022-12-29T15:53:48;9.20;99.90
3562;DHT22;1795;52.074;4.754;2022-12-29T15:56:18;9.20;99.90
3562;DHT22;1795;52.074;4.754;2022-12-29T15:58:48;9.20;99.90
3562;DHT22;1795;52.074;4.754;2022-12-29T16:01:18;9.20;99.90
3562;DHT22;1795;52.074;4.754;2022-12-29T16:03:47;9.20;99.90
3562;DHT22;1795;52.074;4.754;2022-12-29T16:06:34;9.10;99.90
3562;DHT22;1795;52.074;4.754;2022-12-29T16:09:04;9.10;99.90
3562;DHT22;1795;52.074;4.754;2022-12-29T16:11:34;9.10;99.90
3562;DHT22;1795;52.074;4.754;2022-12-29T16:14:07;9.10;99.90
3562;DHT22;1795;52.074;4.754;2022-12-29T16:16:38;9.10;99.90
3562;DHT22;1795;52.074;4.754;2022-12-29T16:19:13;9.10;99.90
3562;DHT22;1795;52.074;4.754;2022-12-29T16:21:43;9.10;99.90
3562;DHT22;1795;52.074;4.754;2022-12-29T16:24:15;9.10;99.90
3562;DHT22;1795;52.074;4.754;2022-12-29T16:26:48;9.00;99.90
3562;DHT22;1795;52.074;4.754;2022-12-29T16:29:19;9.00;99.90
3562;DHT22;1795;52.074;4.754;2022-12-29T16:31:52;9.00;99.90
3562;DHT22;1795;52.074;4.754;2022-12-29T16:34:29;9.00;99.90
3562;DHT22;1795;52.074;4.754;2022-12-29T16:36:59;8.90;99.90
3562;DHT22;1795;52.074;4.754;2022-12-29T16:39:31;8.90;99.90
3562;DHT22;1795;52.074;4.754;2022-12-29T16:41:59;8.90;99.90
3562;DHT22;1795;52.074;4.754;2022-12-29T16:44:29;8.90;99.90
3562;DHT22;1795;52.074;4.754;2022-12-29T16:47:03;8.90;99.90
3562;DHT22;1795;52.074;4.754;2022-12-29T16:49:34;8.90;99.90
3562;DHT22;1795;52.074;4.754;2022-12-29T16:52:13;8.90;99.90
3562;DHT22;1795;52.074;4.754;2022-12-29T16:54:49;8.80;99.90
3562;DHT22;1795;52.074;4.754;2022-12-29T16:57:22;8.80;99.90
3562;DHT22;1795;52.074;4.754;2022-12-29T16:59:52;8.80;99.90
3562;DHT22;1795;52.074;4.754;2022-12-29T17:02:25;8.80;99.90